Terminal Aerodrome Forecast
Issued by NWS

Home | Current Version | Previous Version | Text Only | Print | Product List | Glossary On
Versions: 1 2 3 4 5 6 7 8 9 10 11 12 13 14 15 16 17 18
042
FTUS45 KTFX 261732
TAFGTF
TAF
KGTF 261732Z 2618/2718 22011G18KT P6SM SCT040 BKN070
     FM262100 25011KT P6SM -SHRA VCTS SCT020 BKN050CB
     FM270200 24008KT P6SM -SHRA SCT020 BKN050
     FM271400 25010KT P6SM SCT015 BKN035=

USA.gov is the U.S. government's official web portal to all federal, state and local government web resources and services.